CHICAGO O'HARE INTL

KORD (ORD)
Chicago, Illinois
Towered

Vatsim Metar:
KORD 300351Z 27018G25KT 10SM SCT029 BKN036 BKN060 07/02 A2989 RMK AO2 PK WND 28030/0317 RAB15E27 SLP124 P0000 T00720017 $

No ATC Online

Traffic

Inbound:
Ident
Type
Name
ETA
Phase
UAL103
B739/L
Ronny R. Whaley Sr KORD
04:48 Z
Descent
DAL5857
B712/L
Tony KLAX
Taxiing Out
AAL461
A321/L
Conner Pierce KCLL
05:52 Z
Climb
AAL2590
A320/L
Josh KSRQ
05:48 Z
Cruse
AAL1906
A320/L
Thomas Stagliano KTYS
06:00 Z
Unknown
VTK504
H/B748
1217362
11:04 Z
Cruse

Outbound:
Ident
Type
Name
Destination
Phase
UAL1547
B739/L
Walter Cannon III
MMMX
Climb